sensor_id;sensor_type;location;lat;lon;timestamp;pressure;altitude;pressure_sealevel;temperature
20848;BMP180;10584;50.854;12.902;2024-01-30T00:03:10;99433.00;;;1.80
20848;BMP180;10584;50.854;12.902;2024-01-30T00:08:31;99435.00;;;1.90
20848;BMP180;10584;50.854;12.902;2024-01-30T00:13:53;99433.00;;;1.80
20848;BMP180;10584;50.854;12.902;2024-01-30T00:19:17;99442.00;;;1.70
20848;BMP180;10584;50.854;12.902;2024-01-30T00:24:40;99445.00;;;1.70
20848;BMP180;10584;50.854;12.902;2024-01-30T00:30:07;99434.00;;;1.50
20848;BMP180;10584;50.854;12.902;2024-01-30T00:35:31;99429.00;;;1.40
20848;BMP180;10584;50.854;12.902;2024-01-30T00:40:55;99434.00;;;1.40
20848;BMP180;10584;50.854;12.902;2024-01-30T00:46:18;99433.00;;;1.30
20848;BMP180;10584;50.854;12.902;2024-01-30T00:51:40;99420.00;;;1.40
20848;BMP180;10584;50.854;12.902;2024-01-30T00:57:05;99427.00;;;1.30
20848;BMP180;10584;50.854;12.902;2024-01-30T01:02:27;99428.00;;;1.40
20848;BMP180;10584;50.854;12.902;2024-01-30T01:07:48;99424.00;;;1.40
20848;BMP180;10584;50.854;12.902;2024-01-30T01:13:10;99420.00;;;1.50
20848;BMP180;10584;50.854;12.902;2024-01-30T01:18:32;99422.00;;;1.40
20848;BMP180;10584;50.854;12.902;2024-01-30T01:23:53;99414.00;;;1.40
20848;BMP180;10584;50.854;12.902;2024-01-30T01:29:15;99413.00;;;1.30
20848;BMP180;10584;50.854;12.902;2024-01-30T01:34:37;99412.00;;;1.30
20848;BMP180;10584;50.854;12.902;2024-01-30T01:40:00;99410.00;;;1.40
20848;BMP180;10584;50.854;12.902;2024-01-30T01:45:22;99401.00;;;1.30
20848;BMP180;10584;50.854;12.902;2024-01-30T01:50:44;99395.00;;;1.20
20848;BMP180;10584;50.854;12.902;2024-01-30T01:56:07;99399.00;;;0.90
20848;BMP180;10584;50.854;12.902;2024-01-30T02:01:34;99408.00;;;1.00
20848;BMP180;10584;50.854;12.902;2024-01-30T02:06:58;99400.00;;;0.80
20848;BMP180;10584;50.854;12.902;2024-01-30T02:12:23;99398.00;;;0.80
20848;BMP180;10584;50.854;12.902;2024-01-30T02:17:47;99393.00;;;0.80
20848;BMP180;10584;50.854;12.902;2024-01-30T02:23:11;99389.00;;;0.80
20848;BMP180;10584;50.854;12.902;2024-01-30T02:28:33;99390.00;;;0.70
20848;BMP180;10584;50.854;12.902;2024-01-30T02:33:55;99392.00;;;0.60
20848;BMP180;10584;50.854;12.902;2024-01-30T02:39:16;99396.00;;;0.50
20848;BMP180;10584;50.854;12.902;2024-01-30T02:44:38;99391.00;;;0.40
20848;BMP180;10584;50.854;12.902;2024-01-30T02:50:00;99389.00;;;0.30
20848;BMP180;10584;50.854;12.902;2024-01-30T02:55:21;99388.00;;;0.20
20848;BMP180;10584;50.854;12.902;2024-01-30T03:00:45;99379.00;;;0.10
20848;BMP180;10584;50.854;12.902;2024-01-30T03:06:09;99386.00;;;0.10
20848;BMP180;10584;50.854;12.902;2024-01-30T03:11:31;99378.00;;;0.00
20848;BMP180;10584;50.854;12.902;2024-01-30T03:16:53;99385.00;;;-0.10
20848;BMP180;10584;50.854;12.902;2024-01-30T03:22:14;99378.00;;;-0.10
20848;BMP180;10584;50.854;12.902;2024-01-30T03:27:36;99375.00;;;-0.20
20848;BMP180;10584;50.854;12.902;2024-01-30T03:32:57;99371.00;;;-0.30
20848;BMP180;10584;50.854;12.902;2024-01-30T03:38:21;99382.00;;;-0.30
20848;BMP180;10584;50.854;12.902;2024-01-30T03:43:42;99373.00;;;-0.40
20848;BMP180;10584;50.854;12.902;2024-01-30T03:49:04;99371.00;;;-0.40
20848;BMP180;10584;50.854;12.902;2024-01-30T03:54:26;99375.00;;;-0.50
20848;BMP180;10584;50.854;12.902;2024-01-30T03:59:48;99363.00;;;-0.50
20848;BMP180;10584;50.854;12.902;2024-01-30T04:05:10;99372.00;;;-0.60
20848;BMP180;10584;50.854;12.902;2024-01-30T04:10:32;99359.00;;;-0.60
20848;BMP180;10584;50.854;12.902;2024-01-30T04:15:53;99357.00;;;-0.60
20848;BMP180;10584;50.854;12.902;2024-01-30T04:21:16;99358.00;;;-0.30
20848;BMP180;10584;50.854;12.902;2024-01-30T04:26:38;99357.00;;;-0.30
20848;BMP180;10584;50.854;12.902;2024-01-30T04:31:59;99349.00;;;-0.20
20848;BMP180;10584;50.854;12.902;2024-01-30T04:37:21;99352.00;;;-0.20
20848;BMP180;10584;50.854;12.902;2024-01-30T04:42:43;99352.00;;;-0.20
20848;BMP180;10584;50.854;12.902;2024-01-30T04:48:07;99350.00;;;-0.20
20848;BMP180;10584;50.854;12.902;2024-01-30T04:53:32;99347.00;;;-0.20
20848;BMP180;10584;50.854;12.902;2024-01-30T04:58:57;99347.00;;;-0.20
20848;BMP180;10584;50.854;12.902;2024-01-30T05:04:22;99346.00;;;-0.20
20848;BMP180;10584;50.854;12.902;2024-01-30T05:09:46;99343.00;;;-0.20
20848;BMP180;10584;50.854;12.902;2024-01-30T05:15:08;99343.00;;;-0.30
20848;BMP180;10584;50.854;12.902;2024-01-30T05:20:30;99341.00;;;-0.30
20848;BMP180;10584;50.854;12.902;2024-01-30T05:25:51;99334.00;;;-0.30
20848;BMP180;10584;50.854;12.902;2024-01-30T05:31:13;99336.00;;;-0.20
20848;BMP180;10584;50.854;12.902;2024-01-30T05:36:35;99337.00;;;0.00
20848;BMP180;10584;50.854;12.902;2024-01-30T05:41:56;99334.00;;;0.00
20848;BMP180;10584;50.854;12.902;2024-01-30T05:47:18;99335.00;;;0.00
20848;BMP180;10584;50.854;12.902;2024-01-30T05:52:40;99341.00;;;0.00
20848;BMP180;10584;50.854;12.902;2024-01-30T05:58:01;99337.00;;;0.00
20848;BMP180;10584;50.854;12.902;2024-01-30T06:03:23;99343.00;;;-0.10
20848;BMP180;10584;50.854;12.902;2024-01-30T06:08:45;99345.00;;;0.00
20848;BMP180;10584;50.854;12.902;2024-01-30T06:14:07;99349.00;;;0.00
20848;BMP180;10584;50.854;12.902;2024-01-30T06:19:29;99353.00;;;0.20
20848;BMP180;10584;50.854;12.902;2024-01-30T06:24:51;99352.00;;;0.50
20848;BMP180;10584;50.854;12.902;2024-01-30T06:30:15;99347.00;;;0.60
20848;BMP180;10584;50.854;12.902;2024-01-30T06:35:48;99343.00;;;0.70
20848;BMP180;10584;50.854;12.902;2024-01-30T06:41:12;99344.00;;;0.80
20848;BMP180;10584;50.854;12.902;2024-01-30T06:46:33;99360.00;;;1.10
20848;BMP180;10584;50.854;12.902;2024-01-30T06:51:55;99345.00;;;1.30
20848;BMP180;10584;50.854;12.902;2024-01-30T06:57:17;99343.00;;;1.50
20848;BMP180;10584;50.854;12.902;2024-01-30T07:02:39;99352.00;;;1.70
20848;BMP180;10584;50.854;12.902;2024-01-30T07:08:00;99362.00;;;1.80
20848;BMP180;10584;50.854;12.902;2024-01-30T07:13:22;99364.00;;;1.80
20848;BMP180;10584;50.854;12.902;2024-01-30T07:18:44;99354.00;;;2.10
20848;BMP180;10584;50.854;12.902;2024-01-30T07:24:06;99348.00;;;2.50
20848;BMP180;10584;50.854;12.902;2024-01-30T07:29:28;99366.00;;;2.70
20848;BMP180;10584;50.854;12.902;2024-01-30T07:34:49;99382.00;;;2.80
20848;BMP180;10584;50.854;12.902;2024-01-30T07:40:27;99377.00;;;2.70
20848;BMP180;10584;50.854;12.902;2024-01-30T07:45:48;99375.00;;;2.80
20848;BMP180;10584;50.854;12.902;2024-01-30T07:51:10;99392.00;;;2.90
20848;BMP180;10584;50.854;12.902;2024-01-30T07:56:35;99374.00;;;3.00
20848;BMP180;10584;50.854;12.902;2024-01-30T08:01:56;99370.00;;;3.10
20848;BMP180;10584;50.854;12.902;2024-01-30T08:07:18;99367.00;;;3.30
20848;BMP180;10584;50.854;12.902;2024-01-30T08:12:40;99369.00;;;3.50
20848;BMP180;10584;50.854;12.902;2024-01-30T08:18:01;99374.00;;;3.80
20848;BMP180;10584;50.854;12.902;2024-01-30T08:23:22;99373.00;;;4.00
20848;BMP180;10584;50.854;12.902;2024-01-30T08:28:44;99373.00;;;4.10
20848;BMP180;10584;50.854;12.902;2024-01-30T08:34:06;99367.00;;;4.30
20848;BMP180;10584;50.854;12.902;2024-01-30T08:39:27;99361.00;;;4.40
20848;BMP180;10584;50.854;12.902;2024-01-30T08:44:49;99355.00;;;4.60
20848;BMP180;10584;50.854;12.902;2024-01-30T08:50:12;99361.00;;;4.80
20848;BMP180;10584;50.854;12.902;2024-01-30T08:55:34;99360.00;;;5.10
20848;BMP180;10584;50.854;12.902;2024-01-30T09:00:56;99360.00;;;5.20
20848;BMP180;10584;50.854;12.902;2024-01-30T09:06:17;99357.00;;;5.50
20848;BMP180;10584;50.854;12.902;2024-01-30T09:11:39;99370.00;;;5.70
20848;BMP180;10584;50.854;12.902;2024-01-30T09:17:00;99376.00;;;6.10
20848;BMP180;10584;50.854;12.902;2024-01-30T09:22:22;99367.00;;;6.40
20848;BMP180;10584;50.854;12.902;2024-01-30T09:27:44;99364.00;;;6.70
20848;BMP180;10584;50.854;12.902;2024-01-30T09:33:06;99357.00;;;7.10
20848;BMP180;10584;50.854;12.902;2024-01-30T09:38:28;99351.00;;;7.50
20848;BMP180;10584;50.854;12.902;2024-01-30T09:43:51;99360.00;;;7.70
20848;BMP180;10584;50.854;12.902;2024-01-30T09:49:16;99358.00;;;7.90
20848;BMP180;10584;50.854;12.902;2024-01-30T09:54:41;99356.00;;;8.10
20848;BMP180;10584;50.854;12.902;2024-01-30T10:00:04;99355.00;;;8.30
20848;BMP180;10584;50.854;12.902;2024-01-30T10:05:33;99361.00;;;8.50
20848;BMP180;10584;50.854;12.902;2024-01-30T10:10:57;99357.00;;;8.70
20848;BMP180;10584;50.854;12.902;2024-01-30T10:16:20;99358.00;;;8.90
20848;BMP180;10584;50.854;12.902;2024-01-30T10:21:41;99340.00;;;9.00
20848;BMP180;10584;50.854;12.902;2024-01-30T10:27:05;99346.00;;;9.40
20848;BMP180;10584;50.854;12.902;2024-01-30T10:32:26;99344.00;;;9.70
20848;BMP180;10584;50.854;12.902;2024-01-30T10:37:48;99336.00;;;9.90
20848;BMP180;10584;50.854;12.902;2024-01-30T10:43:11;99326.00;;;10.10
20848;BMP180;10584;50.854;12.902;2024-01-30T10:48:40;99318.00;;;10.40
20848;BMP180;10584;50.854;12.902;2024-01-30T10:54:04;99316.00;;;10.60
20848;BMP180;10584;50.854;12.902;2024-01-30T10:59:26;99323.00;;;10.80
20848;BMP180;10584;50.854;12.902;2024-01-30T11:04:49;99316.00;;;11.10
20848;BMP180;10584;50.854;12.902;2024-01-30T11:10:12;99310.00;;;11.20
20848;BMP180;10584;50.854;12.902;2024-01-30T11:15:38;99312.00;;;11.40
20848;BMP180;10584;50.854;12.902;2024-01-30T11:21:01;99299.00;;;11.70
20848;BMP180;10584;50.854;12.902;2024-01-30T11:26:30;99305.00;;;11.80
20848;BMP180;10584;50.854;12.902;2024-01-30T11:31:58;99291.00;;;11.90
20848;BMP180;10584;50.854;12.902;2024-01-30T11:37:25;99308.00;;;11.90
20848;BMP180;10584;50.854;12.902;2024-01-30T11:42:49;99310.00;;;12.00
20848;BMP180;10584;50.854;12.902;2024-01-30T11:48:14;99293.00;;;11.80
20848;BMP180;10584;50.854;12.902;2024-01-30T11:53:36;99291.00;;;11.90
20848;BMP180;10584;50.854;12.902;2024-01-30T11:58:58;99300.00;;;11.90
20848;BMP180;10584;50.854;12.902;2024-01-30T12:04:22;99305.00;;;12.00
20848;BMP180;10584;50.854;12.902;2024-01-30T12:09:53;99291.00;;;12.10
20848;BMP180;10584;50.854;12.902;2024-01-30T12:15:16;99283.00;;;12.20
20848;BMP180;10584;50.854;12.902;2024-01-30T12:20:38;99281.00;;;12.30
20848;BMP180;10584;50.854;12.902;2024-01-30T12:26:00;99281.00;;;12.40
20848;BMP180;10584;50.854;12.902;2024-01-30T12:31:28;99287.00;;;12.40
20848;BMP180;10584;50.854;12.902;2024-01-30T12:36:50;99281.00;;;12.60
20848;BMP180;10584;50.854;12.902;2024-01-30T12:42:13;99270.00;;;12.60
20848;BMP180;10584;50.854;12.902;2024-01-30T12:47:34;99263.00;;;12.50
20848;BMP180;10584;50.854;12.902;2024-01-30T12:52:56;99276.00;;;12.50
20848;BMP180;10584;50.854;12.902;2024-01-30T12:58:18;99269.00;;;12.40
20848;BMP180;10584;50.854;12.902;2024-01-30T13:03:39;99268.00;;;12.30
20848;BMP180;10584;50.854;12.902;2024-01-30T13:09:02;99268.00;;;12.30
20848;BMP180;10584;50.854;12.902;2024-01-30T13:14:24;99266.00;;;12.30
20848;BMP180;10584;50.854;12.902;2024-01-30T13:19:47;99263.00;;;12.10
20848;BMP180;10584;50.854;12.902;2024-01-30T13:25:29;99266.00;;;12.20
20848;BMP180;10584;50.854;12.902;2024-01-30T13:30:51;99258.00;;;12.30
20848;BMP180;10584;50.854;12.902;2024-01-30T13:36:13;99250.00;;;12.20
20848;BMP180;10584;50.854;12.902;2024-01-30T13:41:35;99252.00;;;12.10
20848;BMP180;10584;50.854;12.902;2024-01-30T13:46:56;99252.00;;;12.00
20848;BMP180;10584;50.854;12.902;2024-01-30T13:52:18;99242.00;;;12.00
20848;BMP180;10584;50.854;12.902;2024-01-30T13:57:43;99240.00;;;11.70
20848;BMP180;10584;50.854;12.902;2024-01-30T14:03:04;99245.00;;;11.70
20848;BMP180;10584;50.854;12.902;2024-01-30T14:08:26;99246.00;;;11.60
20848;BMP180;10584;50.854;12.902;2024-01-30T14:13:49;99240.00;;;11.50
20848;BMP180;10584;50.854;12.902;2024-01-30T14:19:11;99246.00;;;11.30
20848;BMP180;10584;50.854;12.902;2024-01-30T14:24:33;99240.00;;;11.30
20848;BMP180;10584;50.854;12.902;2024-01-30T14:29:55;99242.00;;;11.30
20848;BMP180;10584;50.854;12.902;2024-01-30T14:35:17;99251.00;;;11.30
20848;BMP180;10584;50.854;12.902;2024-01-30T14:40:39;99255.00;;;11.30
20848;BMP180;10584;50.854;12.902;2024-01-30T14:46:01;99255.00;;;11.30
20848;BMP180;10584;50.854;12.902;2024-01-30T14:51:22;99254.00;;;11.40
20848;BMP180;10584;50.854;12.902;2024-01-30T14:56:44;99252.00;;;11.20
20848;BMP180;10584;50.854;12.902;2024-01-30T15:02:06;99253.00;;;11.30
20848;BMP180;10584;50.854;12.902;2024-01-30T15:07:28;99251.00;;;11.10
20848;BMP180;10584;50.854;12.902;2024-01-30T15:13:00;99252.00;;;11.10
20848;BMP180;10584;50.854;12.902;2024-01-30T15:18:53;99243.00;;;11.00
20848;BMP180;10584;50.854;12.902;2024-01-30T15:24:15;99245.00;;;10.90
20848;BMP180;10584;50.854;12.902;2024-01-30T15:29:39;99246.00;;;10.70
20848;BMP180;10584;50.854;12.902;2024-01-30T15:35:01;99243.00;;;10.70
20848;BMP180;10584;50.854;12.902;2024-01-30T15:40:28;99244.00;;;10.40
20848;BMP180;10584;50.854;12.902;2024-01-30T15:45:50;99249.00;;;10.40
20848;BMP180;10584;50.854;12.902;2024-01-30T15:51:13;99241.00;;;10.30
20848;BMP180;10584;50.854;12.902;2024-01-30T15:56:34;99234.00;;;10.10
20848;BMP180;10584;50.854;12.902;2024-01-30T16:01:56;99232.00;;;10.10
20848;BMP180;10584;50.854;12.902;2024-01-30T16:07:18;99251.00;;;10.00
20848;BMP180;10584;50.854;12.902;2024-01-30T16:12:41;99253.00;;;9.90
20848;BMP180;10584;50.854;12.902;2024-01-30T16:18:07;99251.00;;;9.90
20848;BMP180;10584;50.854;12.902;2024-01-30T16:23:28;99260.00;;;9.80
20848;BMP180;10584;50.854;12.902;2024-01-30T16:28:50;99254.00;;;9.80
20848;BMP180;10584;50.854;12.902;2024-01-30T16:34:12;99261.00;;;9.70
20848;BMP180;10584;50.854;12.902;2024-01-30T16:39:34;99267.00;;;9.70
20848;BMP180;10584;50.854;12.902;2024-01-30T16:44:56;99263.00;;;9.60
20848;BMP180;10584;50.854;12.902;2024-01-30T16:50:18;99262.00;;;9.40
20848;BMP180;10584;50.854;12.902;2024-01-30T16:55:41;99271.00;;;9.50
20848;BMP180;10584;50.854;12.902;2024-01-30T17:01:02;99284.00;;;9.40
20848;BMP180;10584;50.854;12.902;2024-01-30T17:06:24;99281.00;;;9.50
20848;BMP180;10584;50.854;12.902;2024-01-30T17:11:47;99289.00;;;9.50
20848;BMP180;10584;50.854;12.902;2024-01-30T17:17:08;99291.00;;;9.30
20848;BMP180;10584;50.854;12.902;2024-01-30T17:22:34;99295.00;;;9.30
20848;BMP180;10584;50.854;12.902;2024-01-30T17:27:58;99296.00;;;9.30
20848;BMP180;10584;50.854;12.902;2024-01-30T17:33:20;99300.00;;;9.20
20848;BMP180;10584;50.854;12.902;2024-01-30T17:38:43;99298.00;;;9.20
20848;BMP180;10584;50.854;12.902;2024-01-30T17:44:06;99297.00;;;9.20
20848;BMP180;10584;50.854;12.902;2024-01-30T17:49:28;99313.00;;;9.20
20848;BMP180;10584;50.854;12.902;2024-01-30T17:54:51;99308.00;;;9.20
20848;BMP180;10584;50.854;12.902;2024-01-30T18:00:16;99315.00;;;9.10
20848;BMP180;10584;50.854;12.902;2024-01-30T18:05:40;99317.00;;;9.10
20848;BMP180;10584;50.854;12.902;2024-01-30T18:11:01;99323.00;;;9.00
20848;BMP180;10584;50.854;12.902;2024-01-30T18:16:23;99319.00;;;8.90
20848;BMP180;10584;50.854;12.902;2024-01-30T18:21:46;99317.00;;;8.70
20848;BMP180;10584;50.854;12.902;2024-01-30T18:27:08;99320.00;;;8.60
20848;BMP180;10584;50.854;12.902;2024-01-30T18:32:30;99319.00;;;8.60
20848;BMP180;10584;50.854;12.902;2024-01-30T18:37:52;99330.00;;;8.40
20848;BMP180;10584;50.854;12.902;2024-01-30T18:43:13;99329.00;;;8.50
20848;BMP180;10584;50.854;12.902;2024-01-30T18:48:37;99345.00;;;8.60
20848;BMP180;10584;50.854;12.902;2024-01-30T18:53:58;99348.00;;;8.50
20848;BMP180;10584;50.854;12.902;2024-01-30T18:59:21;99344.00;;;8.50
20848;BMP180;10584;50.854;12.902;2024-01-30T19:04:43;99348.00;;;8.50
20848;BMP180;10584;50.854;12.902;2024-01-30T19:10:04;99354.00;;;8.50
20848;BMP180;10584;50.854;12.902;2024-01-30T19:15:26;99355.00;;;8.50
20848;BMP180;10584;50.854;12.902;2024-01-30T19:20:47;99359.00;;;8.40
20848;BMP180;10584;50.854;12.902;2024-01-30T19:26:09;99369.00;;;8.40
20848;BMP180;10584;50.854;12.902;2024-01-30T19:31:31;99359.00;;;8.30
20848;BMP180;10584;50.854;12.902;2024-01-30T19:36:52;99371.00;;;8.30
20848;BMP180;10584;50.854;12.902;2024-01-30T19:42:14;99385.00;;;8.30
20848;BMP180;10584;50.854;12.902;2024-01-30T19:47:36;99394.00;;;8.40
20848;BMP180;10584;50.854;12.902;2024-01-30T19:52:58;99392.00;;;8.40
20848;BMP180;10584;50.854;12.902;2024-01-30T19:58:20;99385.00;;;8.30
20848;BMP180;10584;50.854;12.902;2024-01-30T20:03:41;99390.00;;;8.20
20848;BMP180;10584;50.854;12.902;2024-01-30T20:09:03;99399.00;;;8.20
20848;BMP180;10584;50.854;12.902;2024-01-30T20:14:25;99410.00;;;8.20
20848;BMP180;10584;50.854;12.902;2024-01-30T20:19:47;99399.00;;;8.10
20848;BMP180;10584;50.854;12.902;2024-01-30T20:25:10;99405.00;;;8.10
20848;BMP180;10584;50.854;12.902;2024-01-30T20:30:40;99423.00;;;8.00
20848;BMP180;10584;50.854;12.902;2024-01-30T20:36:02;99425.00;;;8.20
20848;BMP180;10584;50.854;12.902;2024-01-30T20:41:27;99422.00;;;8.10
20848;BMP180;10584;50.854;12.902;2024-01-30T20:46:49;99417.00;;;8.20
20848;BMP180;10584;50.854;12.902;2024-01-30T20:52:12;99426.00;;;8.10
20848;BMP180;10584;50.854;12.902;2024-01-30T20:57:34;99423.00;;;8.10
20848;BMP180;10584;50.854;12.902;2024-01-30T21:02:57;99425.00;;;8.00
20848;BMP180;10584;50.854;12.902;2024-01-30T21:08:19;99420.00;;;8.00
20848;BMP180;10584;50.854;12.902;2024-01-30T21:13:40;99430.00;;;8.00
20848;BMP180;10584;50.854;12.902;2024-01-30T21:19:03;99428.00;;;8.00
20848;BMP180;10584;50.854;12.902;2024-01-30T21:24:24;99437.00;;;7.90
20848;BMP180;10584;50.854;12.902;2024-01-30T21:29:46;99450.00;;;8.00
20848;BMP180;10584;50.854;12.902;2024-01-30T21:35:07;99444.00;;;7.90
20848;BMP180;10584;50.854;12.902;2024-01-30T21:40:29;99445.00;;;7.90
20848;BMP180;10584;50.854;12.902;2024-01-30T21:45:51;99456.00;;;7.90
20848;BMP180;10584;50.854;12.902;2024-01-30T21:51:12;99463.00;;;8.00
20848;BMP180;10584;50.854;12.902;2024-01-30T21:56:35;99451.00;;;8.00
20848;BMP180;10584;50.854;12.902;2024-01-30T22:01:58;99449.00;;;7.90
20848;BMP180;10584;50.854;12.902;2024-01-30T22:07:20;99438.00;;;8.00
20848;BMP180;10584;50.854;12.902;2024-01-30T22:12:43;99449.00;;;8.00
20848;BMP180;10584;50.854;12.902;2024-01-30T22:18:04;99449.00;;;7.80
20848;BMP180;10584;50.854;12.902;2024-01-30T22:23:26;99444.00;;;7.70
20848;BMP180;10584;50.854;12.902;2024-01-30T22:28:48;99446.00;;;7.50
20848;BMP180;10584;50.854;12.902;2024-01-30T22:34:09;99444.00;;;7.70
20848;BMP180;10584;50.854;12.902;2024-01-30T22:39:31;99446.00;;;7.60
20848;BMP180;10584;50.854;12.902;2024-01-30T22:44:55;99452.00;;;7.60
20848;BMP180;10584;50.854;12.902;2024-01-30T22:50:19;99457.00;;;7.60
20848;BMP180;10584;50.854;12.902;2024-01-30T22:55:44;99449.00;;;7.60
20848;BMP180;10584;50.854;12.902;2024-01-30T23:01:09;99452.00;;;7.60
20848;BMP180;10584;50.854;12.902;2024-01-30T23:06:34;99456.00;;;7.60
20848;BMP180;10584;50.854;12.902;2024-01-30T23:11:58;99452.00;;;7.60
20848;BMP180;10584;50.854;12.902;2024-01-30T23:17:21;99447.00;;;7.60
20848;BMP180;10584;50.854;12.902;2024-01-30T23:22:42;99443.00;;;7.50
20848;BMP180;10584;50.854;12.902;2024-01-30T23:28:05;99438.00;;;7.40
20848;BMP180;10584;50.854;12.902;2024-01-30T23:33:26;99447.00;;;7.50
20848;BMP180;10584;50.854;12.902;2024-01-30T23:38:48;99467.00;;;7.40
20848;BMP180;10584;50.854;12.902;2024-01-30T23:44:10;99456.00;;;7.40
20848;BMP180;10584;50.854;12.902;2024-01-30T23:49:32;99459.00;;;7.30
20848;BMP180;10584;50.854;12.902;2024-01-30T23:54:54;99460.00;;;7.40
